FLyWide

FLyWide Virtual



 METAR AND TAF INFORMATION
METAR FOR LZIB
ADDS - METARS form results

(0817 UTC 08 December 2019)
Data provider http://aviationweather.gov/metar/data/
 
METAR text: LZIB 080814Z 03003KT 340V050 0800 R31/0450N R22/0700D FG BKN001 00/00 Q1018 R88/75//95
Conditions at: LZIB (BRATISLAVA IVANK, SK) observed 0814 UTC 08 December 2019
Temperature: 0.0°C (32°F)
Dewpoint: 0.0°C (32°F) [RH = 100%]
Pressure (altimeter): 30.06 inches Hg (1018.0 mb)
Winds: from the NNE (30 degrees) at 3 MPH (3 knots; 1.5 m/s)
Visibility: 0.50 miles (0.80 km)
Ceiling: 100 feet AGL
Clouds: broken clouds at 100 feet AGL
Weather: FG  (fog)

METAR text: LZIB 080804Z VRB02KT 1000 R31/0550D R22/1500D BCFG BR SCT001 BKN002 00/00 Q1018 R88/75//95
Conditions at: LZIB (BRATISLAVA IVANK, SK) observed 0804 UTC 08 December 2019
Temperature: 0.0°C (32°F)
Dewpoint: 0.0°C (32°F) [RH = 100%]
Pressure (altimeter): 30.06 inches Hg (1018.0 mb)
Winds: variable direction winds at 2 MPH (2 knots; 1.0 m/s)
Visibility: 0.62 miles (1.00 km)
Ceiling: 200 feet AGL
Clouds: scattered clouds at 100 feet AGL
broken clouds at 200 feet AGL
Weather: BCFG BR  (patches of fog, mist)

METAR text: LZIB 080800Z 34003KT 1400 R31/1300U R22/1800D BR SCT001 BKN055 00/M00 Q1018 R88/75//95 BECMG 4000 BR
Conditions at: LZIB (BRATISLAVA IVANK, SK) observed 0800 UTC 08 December 2019
Temperature: 0.0°C (32°F)
Dewpoint: 0.0°C (32°F) [RH = 100%]
Pressure (altimeter): 30.06 inches Hg (1018.0 mb)
Winds: from the NNW (340 degrees) at 3 MPH (3 knots; 1.5 m/s)
Visibility: 0.87 miles (1.40 km)
Ceiling: 5500 feet AGL
Clouds: scattered clouds at 100 feet AGL
broken clouds at 5500 feet AGL
Weather: BR  (mist)

METAR text: LZIB 080730Z VRB01KT 2500 BR SCT001 BKN055 M00/M00 Q1018 R88/75//95 BECMG 4000 BR
Conditions at: LZIB (BRATISLAVA IVANK, SK) observed 0730 UTC 08 December 2019
Temperature: 0.0°C (32°F)
Dewpoint: 0.0°C (32°F) [RH = 100%]
Pressure (altimeter): 30.06 inches Hg (1018.0 mb)
Winds: variable direction winds at 1 MPH (1 knots; 0.5 m/s)
Visibility: 1.55 miles (2.49 km)
Ceiling: 5500 feet AGL
Clouds: scattered clouds at 100 feet AGL
broken clouds at 5500 feet AGL
Weather: BR  (mist)

Forecast for: LZIB (BRATISLAVA IVANK, SK)
Text: TAF LZIB 080500Z 0806/0906 VRB02KT 2500 BR FEW003 BKN050
Forecast period: 0600 to 0900 UTC 08 December 2019
Forecast type: FROM: standard forecast or significant change
Winds: variable direction winds at 2 MPH (2 knots; 1.0 m/s)
Visibility: 1.55 miles (2.49 km)
Ceiling: 5000 feet AGL
Clouds: few clouds at 300 feet AGL
broken clouds at 5000 feet AGL
Weather: BR  (mist)
Text: TEMPO 0806/0809 1200 BCFG BKN002
Forecast period: 0600 to 0900 UTC 08 December 2019
Forecast type: TEMPORARY: The following changes expected for less than half the time period
Visibility: 0.75 miles (1.21 km)
Ceiling: 200 feet AGL
Clouds: broken clouds at 200 feet AGL
Weather: BCFG  (patches of fog)
Text: BECMG 0809/0811 15005KT 9999 SCT040
Forecast period: 0900 to 1700 UTC 08 December 2019
Forecast type: BECOMING: Conditions expected to become as follows by 1100 UTC 08 December 2019
Winds: from the SSE (150 degrees) at 6 MPH (5 knots; 2.6 m/s)
Visibility: 6 or more miles 10+ km)
Ceiling: at least 12,000 feet AGL
Clouds: scattered clouds at 4000 feet AGL
Weather: BR  (mist)
Text: BECMG 0817/0819 06005KT SCT003 BKN014
Forecast period: 1700 UTC 08 December 2019 to 0600 UTC 09 December 2019
Forecast type: BECOMING: Conditions expected to become as follows by 1900 UTC 08 December 2019
Winds: from the ENE (60 degrees) at 6 MPH (5 knots; 2.6 m/s)
Visibility: 6 or more miles 10+ km)
Ceiling: 1400 feet AGL
Clouds: scattered clouds at 300 feet AGL
broken clouds at 1400 feet AGL
Weather: BR  (mist)
Text: TEMPO 0819/0906 1800 BR BKN003
Forecast period: 1900 UTC 08 December 2019 to 0600 UTC 09 December 2019
Forecast type: TEMPORARY: The following changes expected for less than half the time period
Visibility: 1.12 miles (1.80 km)
Ceiling: 300 feet AGL
Clouds: broken clouds at 300 feet AGL
Weather: BR  (mist)
Text: PROB30
Forecast period: 2100 UTC 08 December 2019 to 0600 UTC 09 December 2019
Forecast type: TEMPORARY: The following changes expected for less than half the time period
Visibility: 0.25 miles (0.40 km)
Ceiling: 200 feet AGL
Clouds: broken clouds at 200 feet AGL
Weather: FZFG  (freezing fog)

 AIRPORT MAP

 RUNWAY INFORMATION
Runway 04 Runway length 9515 ft Runway width 197 ft
Runway elevation 436 ft Runway displaced threshold 0 ft Runway heading 44
Runway 22 Runway length 9515 ft Runway width 197 ft
Runway elevation 430 ft Runway displaced threshold 0 ft Runway heading 224
Runway 13 Runway length 10466 ft Runway width 148 ft
Runway elevation 433 ft Runway displaced threshold 0 ft Runway heading 134
Runway 31 Runway length 10466 ft Runway width 148 ft
Runway elevation 434 ft Runway displaced threshold 777 ft Runway heading 314

 AIRPORT FREQUENCIES
Type APP Name APP Frequency 120.9 MHZ
Type ATIS Name ATIS Frequency 128.65 MHZ
Type TWR Name TWR Frequency 118.3 MHZ

 AIRPORT NEAR NAVIGATION AIDS
Type VOR-DME Name Janovce Frequency 110800 KHZ
Type NDB Name Stefanik South Frequency 330 KHZ
Type NDB Name Stefanik North Frequency 391 KHZ